createdAt,value
2023-08-05T00:00:46.942Z,100128.19
2023-08-05T00:03:14.483Z,100125.63
2023-08-05T00:05:42.042Z,100118.38
2023-08-05T00:08:09.559Z,100111.13
2023-08-05T00:10:37.777Z,100101.66
2023-08-05T00:13:05.865Z,100093.91
2023-08-05T00:15:33.745Z,100091.03
2023-08-05T00:18:04.560Z,100081.50
2023-08-05T00:20:33.764Z,100073.88
2023-08-05T00:23:01.846Z,100075.44
2023-08-05T00:25:29.376Z,100062.78
2023-08-05T00:27:57.021Z,100061.09
2023-08-05T00:30:24.651Z,100059.44
2023-08-05T00:32:52.613Z,100052.91
2023-08-05T00:35:21.640Z,100059.81
2023-08-05T00:37:49.788Z,100060.56
2023-08-05T00:40:17.952Z,100050.81
2023-08-05T00:42:46.154Z,100046.56
2023-08-05T00:45:13.757Z,100048.22
2023-08-05T00:47:42.823Z,100041.59
2023-08-05T00:50:13.062Z,100043.53
2023-08-05T00:52:41.764Z,100043.66
2023-08-05T00:55:10.064Z,100036.75
2023-08-05T00:57:38.083Z,100028.09
2023-08-05T01:00:06.511Z,100012.03
2023-08-05T01:02:34.725Z,100020.75
2023-08-05T01:05:03.341Z,100024.56
2023-08-05T01:07:33.943Z,100031.16
2023-08-05T01:10:01.546Z,100030.59
2023-08-05T01:12:29.614Z,100017.91
2023-08-05T01:14:57.137Z,100003.97
2023-08-05T01:17:25.277Z,99999.13
2023-08-05T01:19:53.799Z,100003.38
2023-08-05T01:22:42.430Z,100007.59
2023-08-05T01:25:29.409Z,100002.97
2023-08-05T01:27:59.416Z,100010.59
2023-08-05T01:30:28.678Z,99992.13
2023-08-05T01:32:59.345Z,99985.41
2023-08-05T01:35:26.979Z,99976.66
2023-08-05T01:37:54.731Z,99974.53
2023-08-05T01:40:25.887Z,99970.50
2023-08-05T01:42:53.403Z,99964.94
2023-08-05T01:45:21.477Z,99967.34
2023-08-05T01:47:50.031Z,99962.72
2023-08-05T01:50:18.424Z,99954.03
2023-08-05T01:52:46.005Z,99947.91
2023-08-05T01:55:14.034Z,99951.56
2023-08-05T01:57:42.017Z,99953.59
2023-08-05T02:00:10.359Z,99940.75
2023-08-05T02:02:44.202Z,99936.00
2023-08-05T02:05:12.043Z,99934.56
2023-08-05T02:07:39.636Z,99941.06
2023-08-05T02:10:08.180Z,99943.06
2023-08-05T02:12:35.777Z,99938.81
2023-08-05T02:15:03.510Z,99931.97
2023-08-05T02:17:31.693Z,99926.06
2023-08-05T02:19:59.228Z,99927.00
2023-08-05T02:22:27.234Z,99928.00
2023-08-05T02:24:54.753Z,99933.94
2023-08-05T02:27:22.662Z,99933.78
2023-08-05T02:29:50.218Z,99933.03
2023-08-05T02:32:18.285Z,99940.41
2023-08-05T02:34:45.974Z,99944.00
2023-08-05T02:37:13.885Z,99933.28
2023-08-05T02:39:42.355Z,99944.50
2023-08-05T02:42:09.943Z,99941.72
2023-08-05T02:44:37.990Z,99935.44
2023-08-05T02:47:05.630Z,99937.13
2023-08-05T02:49:33.942Z,99943.59
2023-08-05T02:52:01.509Z,99937.09
2023-08-05T02:54:29.088Z,99941.59
2023-08-05T02:56:56.731Z,99942.13
2023-08-05T02:59:25.167Z,99940.50
2023-08-05T03:01:52.825Z,99942.88
2023-08-05T03:04:21.362Z,99940.69
2023-08-05T03:06:49.078Z,99944.06
2023-08-05T03:09:17.024Z,99942.13
2023-08-05T03:11:45.046Z,99949.41
2023-08-05T03:14:13.362Z,99945.00
2023-08-05T03:16:42.887Z,99940.22
2023-08-05T03:19:17.544Z,99935.53
2023-08-05T03:21:45.157Z,99932.22
2023-08-05T03:24:13.486Z,99937.44
2023-08-05T03:26:44.630Z,99934.59
2023-08-05T03:29:14.814Z,99941.16
2023-08-05T03:31:43.741Z,99938.94
2023-08-05T03:34:11.397Z,99942.72
2023-08-05T03:36:39.254Z,99948.03
2023-08-05T03:39:08.104Z,99948.31
2023-08-05T03:41:36.180Z,99943.72
2023-08-05T03:44:03.879Z,99949.97
2023-08-05T03:46:31.462Z,99944.25
2023-08-05T03:48:59.082Z,99945.25
2023-08-05T03:51:28.220Z,99950.44
2023-08-05T03:53:57.378Z,99941.97
2023-08-05T03:56:28.410Z,99936.16
2023-08-05T03:58:58.420Z,99935.41
2023-08-05T04:01:27.577Z,99935.53
2023-08-05T04:03:56.463Z,99921.78
2023-08-05T04:06:26.824Z,99907.16
2023-08-05T04:08:55.340Z,99916.97
2023-08-05T04:11:23.433Z,99920.81
2023-08-05T04:13:54.093Z,99926.13
2023-08-05T04:16:24.043Z,99925.44
2023-08-05T04:18:53.462Z,99922.69
2023-08-05T04:21:24.655Z,99918.47
2023-08-05T04:23:53.193Z,99914.59
2023-08-05T04:26:21.066Z,99916.31
2023-08-05T04:28:49.137Z,99918.56
2023-08-05T04:31:16.737Z,99906.56
2023-08-05T04:33:44.390Z,99914.88
2023-08-05T04:36:12.504Z,99923.28
2023-08-05T04:38:40.434Z,99925.44
2023-08-05T04:41:07.948Z,99927.59
2023-08-05T04:43:35.430Z,99923.94
2023-08-05T04:46:03.187Z,99914.31
2023-08-05T04:48:31.053Z,99915.97
2023-08-05T04:50:58.844Z,99915.66
2023-08-05T04:53:26.413Z,99916.13
2023-08-05T04:55:53.961Z,99921.19
2023-08-05T04:58:21.959Z,99920.06
2023-08-05T05:00:49.584Z,99918.41
2023-08-05T05:03:17.359Z,99926.09
2023-08-05T05:05:45.694Z,99939.81
2023-08-05T05:08:15.947Z,99942.34
2023-08-05T05:10:47.345Z,99937.59
2023-08-05T05:13:15.388Z,99946.50
2023-08-05T05:15:43.047Z,99955.03
2023-08-05T05:18:10.642Z,99961.75
2023-08-05T05:20:38.735Z,99966.44
2023-08-05T05:23:06.310Z,99969.16
2023-08-05T05:25:33.967Z,99969.75
2023-08-05T05:28:02.031Z,99964.84
2023-08-05T05:30:29.546Z,99970.59
2023-08-05T05:32:57.172Z,99971.88
2023-08-05T05:35:25.064Z,99978.22
2023-08-05T05:37:52.580Z,99978.75
2023-08-05T05:40:20.069Z,99985.13
2023-08-05T05:42:49.426Z,99991.19
2023-08-05T05:45:17.337Z,99997.19
2023-08-05T05:47:46.090Z,99988.22
2023-08-05T05:50:14.097Z,99997.16
2023-08-05T05:52:41.653Z,100007.97
2023-08-05T05:55:10.230Z,100008.13
2023-08-05T05:57:38.080Z,100008.19
2023-08-05T06:00:06.350Z,100012.06
2023-08-05T06:02:41.483Z,100005.50
2023-08-05T06:05:10.323Z,100013.84
2023-08-05T06:07:38.479Z,100019.28
2023-08-05T06:10:06.553Z,100021.63
2023-08-05T06:12:37.614Z,100009.72
2023-08-05T06:15:09.101Z,100004.59
2023-08-05T06:17:36.724Z,100017.38
2023-08-05T06:20:05.423Z,100021.69
2023-08-05T06:22:33.110Z,100027.53
2023-08-05T06:25:01.129Z,100024.69
2023-08-05T06:27:28.628Z,100034.97
2023-08-05T06:29:57.076Z,100034.78
2023-08-05T06:32:25.211Z,100032.63
2023-08-05T06:34:53.150Z,100039.69
2023-08-05T06:37:22.252Z,100038.09
2023-08-05T06:39:49.842Z,100040.34
2023-08-05T06:42:17.361Z,100039.50
2023-08-05T06:44:45.590Z,100043.03
2023-08-05T06:47:13.538Z,100035.97
2023-08-05T06:49:41.532Z,100034.63
2023-08-05T06:52:09.377Z,100033.81
2023-08-05T06:54:37.066Z,100029.16
2023-08-05T06:57:04.754Z,100032.13
2023-08-05T06:59:32.384Z,100039.97
2023-08-05T07:02:01.318Z,100037.88
2023-08-05T07:04:29.342Z,100033.91
2023-08-05T07:06:56.879Z,100031.25
2023-08-05T07:09:25.326Z,100032.28
2023-08-05T07:11:55.566Z,100036.56
2023-08-05T07:14:23.620Z,100031.31
2023-08-05T07:16:51.580Z,100030.44
2023-08-05T07:19:19.235Z,100032.81
2023-08-05T07:21:46.872Z,100034.63
2023-08-05T07:24:14.411Z,100043.75
2023-08-05T07:26:42.038Z,100047.78
2023-08-05T07:29:09.600Z,100047.97
2023-08-05T07:31:38.090Z,100049.25
2023-08-05T07:34:06.079Z,100048.91
2023-08-05T07:36:34.030Z,100053.09
2023-08-05T07:39:05.033Z,100049.25
2023-08-05T07:41:32.681Z,100051.56
2023-08-05T07:44:02.135Z,100047.88
2023-08-05T07:46:33.741Z,100054.59
2023-08-05T07:49:01.571Z,100064.63
2023-08-05T07:51:30.398Z,100056.88
2023-08-05T07:53:58.973Z,100057.44
2023-08-05T07:56:27.229Z,100065.91
2023-08-05T07:58:54.859Z,100066.91
2023-08-05T08:01:23.419Z,100072.72
2023-08-05T08:03:55.626Z,100073.38
2023-08-05T08:06:24.029Z,100068.50
2023-08-05T08:08:52.516Z,100076.25
2023-08-05T08:11:21.097Z,100071.41
2023-08-05T08:13:49.010Z,100056.03
2023-08-05T08:16:17.421Z,100058.09
2023-08-05T08:18:45.538Z,100068.84
2023-08-05T08:21:13.448Z,100070.09
2023-08-05T08:23:40.972Z,100063.09
2023-08-05T08:26:08.517Z,100060.91
2023-08-05T08:28:36.116Z,100057.53
2023-08-05T08:31:03.945Z,100061.28
2023-08-05T08:33:31.699Z,100071.09
2023-08-05T08:35:59.293Z,100067.88
2023-08-05T08:38:27.076Z,100069.06
2023-08-05T08:41:03.747Z,100072.16
2023-08-05T08:43:32.072Z,100069.25
2023-08-05T08:46:00.537Z,100064.22
2023-08-05T08:48:29.986Z,100062.88
2023-08-05T08:51:00.089Z,100058.78
2023-08-05T08:53:28.465Z,100055.50
2023-08-05T08:55:56.130Z,100053.28
2023-08-05T08:58:24.053Z,100055.75
2023-08-05T09:00:52.130Z,100061.53
2023-08-05T09:03:25.087Z,100063.78
2023-08-05T09:05:57.758Z,100066.22
2023-08-05T09:08:26.589Z,100075.50
2023-08-05T09:10:54.127Z,100079.47
2023-08-05T09:13:22.922Z,100069.91
2023-08-05T09:15:51.197Z,100064.16
2023-08-05T09:18:18.855Z,100064.78
2023-08-05T09:20:51.112Z,100066.75
2023-08-05T09:23:18.665Z,100068.03
2023-08-05T09:25:52.775Z,100072.81
2023-08-05T09:28:33.114Z,100076.81
2023-08-05T09:31:14.443Z,100064.25
2023-08-05T09:33:43.348Z,100069.34
2023-08-05T09:36:12.916Z,100068.53
2023-08-05T09:38:41.148Z,100063.25
2023-08-05T09:41:09.669Z,100060.25
2023-08-05T09:43:44.768Z,100050.56
2023-08-05T09:46:15.246Z,100049.47
2023-08-05T09:48:44.744Z,100052.78
2023-08-05T09:51:17.854Z,100062.75
2023-08-05T09:53:52.386Z,100059.72
2023-08-05T09:56:21.892Z,100072.69
2023-08-05T09:58:50.132Z,100069.13
2023-08-05T10:01:19.981Z,100075.31
2023-08-05T10:03:49.486Z,100064.63
2023-08-05T10:06:17.182Z,100067.25
2023-08-05T10:08:48.121Z,100074.69
2023-08-05T10:11:16.505Z,100069.63
2023-08-05T10:13:48.602Z,100071.44
2023-08-05T10:16:16.966Z,100063.13
2023-08-05T10:18:45.874Z,100064.78
2023-08-05T10:21:13.445Z,100058.31
2023-08-05T10:23:41.099Z,100062.78
2023-08-05T10:26:08.697Z,100069.69
2023-08-05T10:28:36.218Z,100058.75
2023-08-05T10:31:06.263Z,100059.84
2023-08-05T10:34:09.601Z,100062.13
2023-08-05T10:36:49.491Z,100060.72
2023-08-05T10:40:01.947Z,100055.16
2023-08-05T10:42:29.496Z,100050.22
2023-08-05T10:44:59.427Z,100058.09
2023-08-05T10:47:28.153Z,100051.84
2023-08-05T10:49:59.992Z,100046.25
2023-08-05T10:52:29.452Z,100038.50
2023-08-05T10:54:57.756Z,100046.81
2023-08-05T10:57:48.699Z,100053.63
2023-08-05T11:00:21.567Z,100061.50
2023-08-05T11:02:51.045Z,100065.84
2023-08-05T11:05:19.163Z,100052.56
2023-08-05T11:07:47.873Z,100058.97
2023-08-05T11:10:15.543Z,100063.75
2023-08-05T11:12:43.963Z,100062.47
2023-08-05T11:15:11.946Z,100057.72
2023-08-05T11:17:56.782Z,100059.03
2023-08-05T11:20:32.449Z,100058.22
2023-08-05T11:23:00.905Z,100056.81
2023-08-05T11:25:29.951Z,100054.56
2023-08-05T11:27:59.079Z,100059.16
2023-08-05T11:30:26.699Z,100058.47
2023-08-05T11:32:59.843Z,100059.44
2023-08-05T11:35:27.769Z,100065.88
2023-08-05T11:37:56.245Z,100059.31
2023-08-05T11:40:25.132Z,100060.69
2023-08-05T11:42:53.697Z,100063.13
2023-08-05T11:45:21.380Z,100064.50
2023-08-05T11:47:49.219Z,100064.19
2023-08-05T11:50:17.023Z,100064.03
2023-08-05T11:53:08.674Z,100061.63
2023-08-05T11:55:37.773Z,100064.38
2023-08-05T11:58:05.795Z,100057.84
2023-08-05T12:00:34.906Z,100062.19
2023-08-05T12:03:06.732Z,100063.91
2023-08-05T12:05:34.742Z,100070.41
2023-08-05T12:08:02.940Z,100074.44
2023-08-05T12:10:31.278Z,100076.13
2023-08-05T12:13:03.882Z,100073.41
2023-08-05T12:15:32.554Z,100075.56
2023-08-05T12:18:09.683Z,100073.69
2023-08-05T12:20:38.653Z,100078.78
2023-08-05T12:23:09.458Z,100075.75
2023-08-05T12:25:37.131Z,100081.06
2023-08-05T12:28:06.921Z,100083.50
2023-08-05T12:30:34.886Z,100094.66
2023-08-05T12:33:05.228Z,100083.97
2023-08-05T12:35:34.562Z,100077.94
2023-08-05T12:38:02.247Z,100080.69
2023-08-05T12:40:29.865Z,100085.75
2023-08-05T12:42:57.963Z,100086.09
2023-08-05T12:45:25.549Z,100087.44
2023-08-05T12:47:53.287Z,100089.97
2023-08-05T12:50:21.167Z,100100.03
2023-08-05T12:52:48.683Z,100096.25
2023-08-05T12:55:16.204Z,100089.66
2023-08-05T12:57:44.924Z,100097.69
2023-08-05T13:00:14.112Z,100098.63
2023-08-05T13:02:41.740Z,100098.41
2023-08-05T13:05:09.515Z,100090.03
2023-08-05T13:07:37.890Z,100081.34
2023-08-05T13:10:06.205Z,100086.31
2023-08-05T13:12:34.192Z,100088.69
2023-08-05T13:15:01.684Z,100095.00
2023-08-05T13:17:29.312Z,100097.19
2023-08-05T13:19:57.316Z,100097.19
2023-08-05T13:22:25.068Z,100083.09
2023-08-05T13:24:53.117Z,100078.00
2023-08-05T13:27:22.672Z,100081.13
2023-08-05T13:29:50.666Z,100083.50
2023-08-05T13:32:18.256Z,100081.59
2023-08-05T13:34:46.369Z,100077.63
2023-08-05T13:37:14.374Z,100083.88
2023-08-05T13:39:41.872Z,100073.09
2023-08-05T13:42:09.794Z,100077.88
2023-08-05T13:44:37.851Z,100079.50
2023-08-05T13:47:05.511Z,100085.09
2023-08-05T13:49:33.508Z,100087.47
2023-08-05T13:52:01.121Z,100089.69
2023-08-05T13:54:29.110Z,100082.03
2023-08-05T13:56:57.091Z,100076.16
2023-08-05T13:59:24.612Z,100076.84
2023-08-05T14:01:52.297Z,100072.09
2023-08-05T14:04:20.105Z,100079.00
2023-08-05T14:06:48.511Z,100079.59
2023-08-05T14:09:16.113Z,100070.75
2023-08-05T14:11:43.666Z,100077.31
2023-08-05T14:14:11.180Z,100070.78
2023-08-05T14:16:40.258Z,100063.72
2023-08-05T14:19:08.805Z,100072.09
2023-08-05T14:21:36.348Z,100059.56
2023-08-05T14:24:04.693Z,100063.41
2023-08-05T14:26:32.766Z,100062.19
2023-08-05T14:29:00.454Z,100060.88
2023-08-05T14:31:28.173Z,100058.84
2023-08-05T14:33:55.749Z,100058.22
2023-08-05T14:36:26.585Z,100046.97
2023-08-05T14:38:54.188Z,100057.41
2023-08-05T14:41:21.787Z,100058.34
2023-08-05T14:43:49.739Z,100058.44
2023-08-05T14:46:17.681Z,100053.47
2023-08-05T14:48:48.052Z,100052.97
2023-08-05T14:51:16.035Z,100056.47
2023-08-05T14:53:43.573Z,100055.91
2023-08-05T14:56:11.284Z,100051.03
2023-08-05T14:58:38.898Z,100055.81
2023-08-05T15:01:17.578Z,100054.97
2023-08-05T15:03:49.799Z,100057.50
2023-08-05T15:06:18.830Z,100050.00
2023-08-05T15:08:55.274Z,100039.06
2023-08-05T15:11:23.303Z,100041.09
2023-08-05T15:13:51.447Z,100044.47
2023-08-05T15:16:19.149Z,100049.94
2023-08-05T15:18:46.817Z,100045.50
2023-08-05T15:21:14.934Z,100049.13
2023-08-05T15:23:42.504Z,100055.59
2023-08-05T15:26:10.168Z,100057.91
2023-08-05T15:28:37.726Z,100051.25
2023-08-05T15:31:05.519Z,100052.50
2023-08-05T15:33:33.180Z,100063.91
2023-08-05T15:36:00.729Z,100057.25
2023-08-05T15:38:28.769Z,100053.06
2023-08-05T15:40:59.953Z,100046.03
2023-08-05T15:43:27.571Z,100042.09
2023-08-05T15:45:56.973Z,100048.41
2023-08-05T15:48:25.696Z,100032.50
2023-08-05T15:50:54.462Z,100041.22
2023-08-05T15:53:21.945Z,100036.69
2023-08-05T15:55:58.607Z,100047.31
2023-08-05T15:58:28.419Z,100040.34
2023-08-05T16:01:03.712Z,100036.94
2023-08-05T16:03:32.491Z,100038.53
2023-08-05T16:06:07.188Z,100044.47
2023-08-05T16:08:36.248Z,100048.03
2023-08-05T16:11:09.070Z,100054.44
2023-08-05T16:13:37.656Z,100056.75
2023-08-05T16:16:19.442Z,100060.59
2023-08-05T16:18:47.364Z,100061.56
2023-08-05T16:21:21.261Z,100061.78
2023-08-05T16:23:58.611Z,100062.66
2023-08-05T16:26:27.318Z,100059.06
2023-08-05T16:28:55.077Z,100058.22
2023-08-05T16:31:25.186Z,100057.47
2023-08-05T16:33:53.428Z,100064.25
2023-08-05T16:36:23.392Z,100062.22
2023-08-05T16:38:51.640Z,100061.78
2023-08-05T16:41:19.605Z,100065.53
2023-08-05T16:43:47.200Z,100060.22
2023-08-05T16:46:17.744Z,100050.16
2023-08-05T16:48:45.442Z,100046.19
2023-08-05T16:51:12.930Z,100051.44
2023-08-05T16:53:40.550Z,100046.34
2023-08-05T16:56:08.758Z,100047.19
2023-08-05T16:58:36.926Z,100055.16
2023-08-05T17:01:04.478Z,100056.00
2023-08-05T17:03:32.021Z,100054.91
2023-08-05T17:06:00.212Z,100042.47
2023-08-05T17:08:27.826Z,100033.34
2023-08-05T17:10:55.374Z,100041.53
2023-08-05T17:13:22.997Z,100040.34
2023-08-05T17:15:50.789Z,100040.16
2023-08-05T17:18:18.380Z,100040.00
2023-08-05T17:20:46.179Z,100040.72
2023-08-05T17:23:13.736Z,100032.34
2023-08-05T17:25:42.497Z,100044.19
2023-08-05T17:28:10.451Z,100039.09
2023-08-05T17:30:38.393Z,100047.81
2023-08-05T17:33:06.872Z,100046.78
2023-08-05T17:35:35.817Z,100044.56
2023-08-05T17:38:04.273Z,100040.69
2023-08-05T17:40:32.510Z,100045.91
2023-08-05T17:43:00.157Z,100033.72
2023-08-05T17:45:27.736Z,100037.38
2023-08-05T17:47:55.287Z,100055.03
2023-08-05T17:50:23.181Z,100047.03
2023-08-05T17:52:50.791Z,100054.31
2023-08-05T17:55:18.380Z,100055.81
2023-08-05T17:57:45.954Z,100055.53
2023-08-05T18:00:13.779Z,100064.09
2023-08-05T18:02:41.759Z,100062.94
2023-08-05T18:05:10.175Z,100064.22
2023-08-05T18:07:37.688Z,100063.88
2023-08-05T18:10:05.679Z,100061.28
2023-08-05T18:12:34.323Z,100054.81
2023-08-05T18:15:02.683Z,100054.50
2023-08-05T18:17:30.774Z,100057.19
2023-08-05T18:19:58.746Z,100056.41
2023-08-05T18:22:26.737Z,100053.66
2023-08-05T18:24:54.318Z,100054.59
2023-08-05T18:27:21.957Z,100053.41
2023-08-05T18:29:50.174Z,100041.09
2023-08-05T18:32:18.112Z,100040.88
2023-08-05T18:34:45.721Z,100036.25
2023-08-05T18:37:13.312Z,100031.84
2023-08-05T18:39:40.857Z,100037.38
2023-08-05T18:42:08.858Z,100027.09
2023-08-05T18:44:37.484Z,100036.50
2023-08-05T18:47:06.120Z,100033.19
2023-08-05T18:49:34.263Z,100031.06
2023-08-05T18:52:02.122Z,100038.31
2023-08-05T18:54:30.091Z,100036.91
2023-08-05T18:56:58.602Z,100031.22
2023-08-05T18:59:26.863Z,100026.72
2023-08-05T19:01:54.628Z,100029.00
2023-08-05T19:04:22.509Z,100029.69
2023-08-05T19:06:50.259Z,100043.94
2023-08-05T19:09:18.139Z,100042.09
2023-08-05T19:11:48.398Z,100043.47
2023-08-05T19:14:16.242Z,100047.06
2023-08-05T19:16:43.902Z,100054.47
2023-08-05T19:19:11.459Z,100041.44
2023-08-05T19:21:39.574Z,100044.94
2023-08-05T19:24:07.133Z,100035.81
2023-08-05T19:26:40.453Z,100032.50
2023-08-05T19:29:09.174Z,100037.44
2023-08-05T19:31:37.258Z,100035.50
2023-08-05T19:34:06.399Z,100052.81
2023-08-05T19:36:34.085Z,100047.88
2023-08-05T19:39:01.565Z,100050.31
2023-08-05T19:41:29.505Z,100051.13
2023-08-05T19:43:57.228Z,100046.84
2023-08-05T19:46:25.056Z,100054.47
2023-08-05T19:48:53.089Z,100050.78
2023-08-05T19:51:21.353Z,100048.09
2023-08-05T19:53:48.880Z,100045.44
2023-08-05T19:56:16.608Z,100056.56
2023-08-05T19:58:44.690Z,100058.44
2023-08-05T20:01:13.143Z,100059.84
2023-08-05T20:03:40.855Z,100065.59
2023-08-05T20:06:08.939Z,100054.25
2023-08-05T20:08:36.582Z,100070.72
2023-08-05T20:11:04.378Z,100070.75
2023-08-05T20:13:32.459Z,100062.72
2023-08-05T20:16:01.118Z,100069.34
2023-08-05T20:18:28.705Z,100078.00
2023-08-05T20:20:56.829Z,100072.81
2023-08-05T20:23:24.998Z,100086.44
2023-08-05T20:25:53.167Z,100080.88
2023-08-05T20:28:24.334Z,100071.84
2023-08-05T20:30:53.861Z,100067.03
2023-08-05T20:33:22.329Z,100069.28
2023-08-05T20:35:50.334Z,100056.09
2023-08-05T20:38:18.125Z,100068.22
2023-08-05T20:43:19.395Z,100067.78
2023-08-05T20:45:46.895Z,100059.72
2023-08-05T20:48:14.563Z,100062.44
2023-08-05T20:50:42.127Z,100066.66
2023-08-05T20:53:11.838Z,100066.19
2023-08-05T20:55:39.920Z,100068.47
2023-08-05T20:58:07.441Z,100065.63
2023-08-05T21:00:35.351Z,100063.50
2023-08-05T21:03:03.088Z,100059.84
2023-08-05T21:05:30.698Z,100055.94
2023-08-05T21:07:58.734Z,100055.84
2023-08-05T21:10:26.835Z,100058.47
2023-08-05T21:12:54.473Z,100055.09
2023-08-05T21:15:22.010Z,100059.63
2023-08-05T21:17:49.606Z,100058.53
2023-08-05T21:20:17.228Z,100068.50
2023-08-05T21:22:45.203Z,100078.09
2023-08-05T21:25:12.716Z,100077.22
2023-08-05T21:27:40.824Z,100079.47
2023-08-05T21:30:09.124Z,100075.84
2023-08-05T21:32:36.778Z,100072.00
2023-08-05T21:35:04.818Z,100079.38
2023-08-05T21:37:33.661Z,100077.31
2023-08-05T21:40:01.662Z,100078.81
2023-08-05T21:42:29.286Z,100068.94
2023-08-05T21:44:56.854Z,100059.09
2023-08-05T21:47:24.802Z,100055.41
2023-08-05T21:49:52.826Z,100047.91
2023-08-05T21:52:20.940Z,100047.06
2023-08-05T21:54:49.218Z,100061.63
2023-08-05T21:57:16.900Z,100061.75
2023-08-05T21:59:44.547Z,100067.56
2023-08-05T22:02:12.153Z,100064.38
2023-08-05T22:04:39.709Z,100052.69
2023-08-05T22:07:07.278Z,100048.75
2023-08-05T22:09:34.871Z,100044.50
2023-08-05T22:12:08.282Z,100050.94
2023-08-05T22:14:36.566Z,100045.22
2023-08-05T22:17:04.242Z,100043.84
2023-08-05T22:19:32.188Z,100041.19
2023-08-05T22:21:59.786Z,100030.38
2023-08-05T22:24:41.317Z,100033.31
2023-08-05T22:27:10.719Z,100035.09
2023-08-05T22:29:38.413Z,100033.47
2023-08-05T22:32:06.602Z,100033.25
2023-08-05T22:34:34.210Z,100031.63
2023-08-05T22:37:06.474Z,100022.63
2023-08-05T22:39:34.688Z,100027.38
2023-08-05T22:42:03.848Z,100027.44
2023-08-05T22:44:31.403Z,100026.69
2023-08-05T22:46:59.132Z,100025.94
2023-08-05T22:49:27.557Z,100014.91
2023-08-05T22:51:55.312Z,100014.50
2023-08-05T22:54:23.117Z,100027.00
2023-08-05T22:56:51.150Z,100021.50
2023-08-05T22:59:19.110Z,100016.50
2023-08-05T23:01:47.086Z,100015.97
2023-08-05T23:04:14.722Z,100008.97
2023-08-05T23:06:42.645Z,100010.81
2023-08-05T23:09:10.883Z,100006.50
2023-08-05T23:11:38.878Z,100005.72
2023-08-05T23:14:08.586Z,100005.31
2023-08-05T23:16:36.214Z,100001.47
2023-08-05T23:19:04.515Z,100000.50
2023-08-05T23:21:32.110Z,99998.00
2023-08-05T23:24:00.566Z,100000.59
2023-08-05T23:26:28.793Z,99999.91
2023-08-05T23:28:59.366Z,99990.81
2023-08-05T23:31:27.076Z,99986.81
2023-08-05T23:33:55.376Z,99983.97
2023-08-05T23:36:23.091Z,99990.19
2023-08-05T23:38:51.227Z,99989.56
2023-08-05T23:41:18.820Z,99980.66
2023-08-05T23:43:46.432Z,99981.88
2023-08-05T23:46:14.204Z,99980.16
2023-08-05T23:48:41.714Z,99980.03
2023-08-05T23:51:09.779Z,99981.78
2023-08-05T23:53:37.937Z,99983.19
2023-08-05T23:56:05.780Z,99977.47
2023-08-05T23:58:33.394Z,99975.38
